sensor_id;sensor_type;location;lat;lon;timestamp;P1;durP1;ratioP1;P2;durP2;ratioP2
8893;SDS011;4483;48.622;9.230;2022-07-29T00:01:13;5.40;;;4.70;;
8893;SDS011;4483;48.622;9.230;2022-07-29T00:03:40;5.13;;;4.78;;
8893;SDS011;4483;48.622;9.230;2022-07-29T00:06:07;5.55;;;5.05;;
8893;SDS011;4483;48.622;9.230;2022-07-29T00:08:33;5.20;;;4.80;;
8893;SDS011;4483;48.622;9.230;2022-07-29T00:11:01;7.30;;;5.28;;
8893;SDS011;4483;48.622;9.230;2022-07-29T00:13:28;5.63;;;4.90;;
8893;SDS011;4483;48.622;9.230;2022-07-29T00:15:56;4.90;;;4.50;;
8893;SDS011;4483;48.622;9.230;2022-07-29T00:18:22;7.00;;;4.88;;
8893;SDS011;4483;48.622;9.230;2022-07-29T00:20:49;5.47;;;4.97;;
8893;SDS011;4483;48.622;9.230;2022-07-29T00:23:15;5.05;;;4.65;;
8893;SDS011;4483;48.622;9.230;2022-07-29T00:25:42;6.60;;;4.97;;
8893;SDS011;4483;48.622;9.230;2022-07-29T00:28:09;5.05;;;4.65;;
8893;SDS011;4483;48.622;9.230;2022-07-29T00:30:35;5.30;;;4.72;;
8893;SDS011;4483;48.622;9.230;2022-07-29T00:33:03;5.32;;;4.82;;
8893;SDS011;4483;48.622;9.230;2022-07-29T00:35:30;5.38;;;4.88;;
8893;SDS011;4483;48.622;9.230;2022-07-29T00:38:11;4.80;;;4.38;;
8893;SDS011;4483;48.622;9.230;2022-07-29T00:40:39;5.72;;;5.13;;
8893;SDS011;4483;48.622;9.230;2022-07-29T00:43:06;4.88;;;4.47;;
8893;SDS011;4483;48.622;9.230;2022-07-29T00:45:33;5.20;;;4.60;;
8893;SDS011;4483;48.622;9.230;2022-07-29T00:48:00;5.20;;;4.80;;
8893;SDS011;4483;48.622;9.230;2022-07-29T00:50:29;5.22;;;4.82;;
8893;SDS011;4483;48.622;9.230;2022-07-29T00:52:57;5.75;;;4.68;;
8893;SDS011;4483;48.622;9.230;2022-07-29T00:55:24;5.15;;;4.82;;
8893;SDS011;4483;48.622;9.230;2022-07-29T00:57:50;6.30;;;4.50;;
8893;SDS011;4483;48.622;9.230;2022-07-29T01:00:19;5.45;;;4.43;;
8893;SDS011;4483;48.622;9.230;2022-07-29T01:02:47;6.47;;;5.10;;
8893;SDS011;4483;48.622;9.230;2022-07-29T01:05:14;5.70;;;5.13;;
8893;SDS011;4483;48.622;9.230;2022-07-29T01:07:45;5.10;;;4.70;;
8893;SDS011;4483;48.622;9.230;2022-07-29T01:10:14;6.88;;;5.32;;
8893;SDS011;4483;48.622;9.230;2022-07-29T01:12:43;5.70;;;5.20;;
8893;SDS011;4483;48.622;9.230;2022-07-29T01:15:11;5.40;;;5.03;;
8893;SDS011;4483;48.622;9.230;2022-07-29T01:17:41;5.35;;;4.95;;
8893;SDS011;4483;48.622;9.230;2022-07-29T01:20:12;6.82;;;4.82;;
8893;SDS011;4483;48.622;9.230;2022-07-29T01:22:53;5.38;;;4.88;;
8893;SDS011;4483;48.622;9.230;2022-07-29T01:25:48;5.10;;;4.70;;
8893;SDS011;4483;48.622;9.230;2022-07-29T01:31:25;4.93;;;4.57;;
8893;SDS011;4483;48.622;9.230;2022-07-29T01:33:57;4.50;;;4.18;;
8893;SDS011;4483;48.622;9.230;2022-07-29T01:36:29;4.60;;;4.22;;
8893;SDS011;4483;48.622;9.230;2022-07-29T01:38:59;4.65;;;4.25;;
8893;SDS011;4483;48.622;9.230;2022-07-29T01:41:32;4.40;;;4.10;;
8893;SDS011;4483;48.622;9.230;2022-07-29T01:44:06;4.10;;;3.88;;
8893;SDS011;4483;48.622;9.230;2022-07-29T01:46:40;4.22;;;3.97;;
8893;SDS011;4483;48.622;9.230;2022-07-29T01:49:14;4.28;;;4.07;;
8893;SDS011;4483;48.622;9.230;2022-07-29T01:51:43;4.85;;;4.40;;
8893;SDS011;4483;48.622;9.230;2022-07-29T01:54:26;4.18;;;3.78;;
8893;SDS011;4483;48.622;9.230;2022-07-29T01:56:58;9.25;;;4.80;;
8893;SDS011;4483;48.622;9.230;2022-07-29T01:59:28;4.10;;;3.80;;
8893;SDS011;4483;48.622;9.230;2022-07-29T02:01:57;8.52;;;4.40;;
8893;SDS011;4483;48.622;9.230;2022-07-29T02:04:24;5.10;;;4.68;;
8893;SDS011;4483;48.622;9.230;2022-07-29T02:06:54;4.57;;;4.25;;
8893;SDS011;4483;48.622;9.230;2022-07-29T02:09:23;8.98;;;4.43;;
8893;SDS011;4483;48.622;9.230;2022-07-29T02:11:53;4.93;;;4.63;;
8893;SDS011;4483;48.622;9.230;2022-07-29T02:14:21;4.78;;;4.47;;
8893;SDS011;4483;48.622;9.230;2022-07-29T02:16:52;4.47;;;4.07;;
8893;SDS011;4483;48.622;9.230;2022-07-29T02:19:21;4.57;;;4.18;;
8893;SDS011;4483;48.622;9.230;2022-07-29T02:21:49;3.72;;;3.53;;
8893;SDS011;4483;48.622;9.230;2022-07-29T02:24:19;4.80;;;4.20;;
8893;SDS011;4483;48.622;9.230;2022-07-29T02:26:46;3.80;;;3.60;;
8893;SDS011;4483;48.622;9.230;2022-07-29T02:29:15;4.32;;;4.03;;
8893;SDS011;4483;48.622;9.230;2022-07-29T02:31:45;6.60;;;4.23;;
8893;SDS011;4483;48.622;9.230;2022-07-29T02:34:15;4.47;;;4.18;;
8893;SDS011;4483;48.622;9.230;2022-07-29T02:36:44;4.85;;;4.28;;
8893;SDS011;4483;48.622;9.230;2022-07-29T02:39:12;4.80;;;4.32;;
8893;SDS011;4483;48.622;9.230;2022-07-29T02:41:41;6.18;;;4.53;;
8893;SDS011;4483;48.622;9.230;2022-07-29T02:44:11;6.03;;;4.03;;
8893;SDS011;4483;48.622;9.230;2022-07-29T02:46:42;5.80;;;4.22;;
8893;SDS011;4483;48.622;9.230;2022-07-29T02:49:16;4.15;;;3.85;;
8893;SDS011;4483;48.622;9.230;2022-07-29T02:51:53;3.80;;;3.50;;
8893;SDS011;4483;48.622;9.230;2022-07-29T02:54:24;7.15;;;3.88;;
8893;SDS011;4483;48.622;9.230;2022-07-29T02:56:57;4.20;;;3.80;;
8893;SDS011;4483;48.622;9.230;2022-07-29T02:59:27;3.38;;;3.17;;
8893;SDS011;4483;48.622;9.230;2022-07-29T03:01:57;3.45;;;3.25;;
8893;SDS011;4483;48.622;9.230;2022-07-29T03:04:27;3.80;;;3.47;;
8893;SDS011;4483;48.622;9.230;2022-07-29T03:06:57;3.78;;;3.58;;
8893;SDS011;4483;48.622;9.230;2022-07-29T03:09:25;5.00;;;3.50;;
8893;SDS011;4483;48.622;9.230;2022-07-29T03:11:54;4.90;;;3.40;;
8893;SDS011;4483;48.622;9.230;2022-07-29T03:14:22;3.50;;;3.20;;
8893;SDS011;4483;48.622;9.230;2022-07-29T03:16:49;4.28;;;3.95;;
8893;SDS011;4483;48.622;9.230;2022-07-29T03:19:17;4.40;;;4.00;;
8893;SDS011;4483;48.622;9.230;2022-07-29T03:21:46;4.00;;;3.60;;
8893;SDS011;4483;48.622;9.230;2022-07-29T03:24:24;3.80;;;3.60;;
8893;SDS011;4483;48.622;9.230;2022-07-29T03:26:51;4.03;;;3.73;;
8893;SDS011;4483;48.622;9.230;2022-07-29T03:29:18;5.55;;;4.00;;
8893;SDS011;4483;48.622;9.230;2022-07-29T03:31:44;3.60;;;3.40;;
8893;SDS011;4483;48.622;9.230;2022-07-29T03:34:11;3.70;;;3.40;;
8893;SDS011;4483;48.622;9.230;2022-07-29T03:36:38;4.72;;;4.15;;
8893;SDS011;4483;48.622;9.230;2022-07-29T03:39:06;3.35;;;3.17;;
8893;SDS011;4483;48.622;9.230;2022-07-29T03:41:34;3.50;;;3.30;;
8893;SDS011;4483;48.622;9.230;2022-07-29T03:44:03;3.80;;;3.50;;
8893;SDS011;4483;48.622;9.230;2022-07-29T03:46:31;5.03;;;3.90;;
8893;SDS011;4483;48.622;9.230;2022-07-29T03:49:02;4.40;;;3.50;;
8893;SDS011;4483;48.622;9.230;2022-07-29T03:51:33;4.90;;;3.57;;
8893;SDS011;4483;48.622;9.230;2022-07-29T03:54:00;3.90;;;3.70;;
8893;SDS011;4483;48.622;9.230;2022-07-29T03:56:29;3.97;;;3.67;;
8893;SDS011;4483;48.622;9.230;2022-07-29T03:58:58;3.88;;;3.60;;
8893;SDS011;4483;48.622;9.230;2022-07-29T04:01:27;5.70;;;4.10;;
8893;SDS011;4483;48.622;9.230;2022-07-29T04:03:54;4.03;;;3.72;;
8893;SDS011;4483;48.622;9.230;2022-07-29T04:06:21;4.35;;;3.95;;
8893;SDS011;4483;48.622;9.230;2022-07-29T04:08:48;4.73;;;4.33;;
8893;SDS011;4483;48.622;9.230;2022-07-29T04:11:14;4.87;;;4.47;;
8893;SDS011;4483;48.622;9.230;2022-07-29T04:13:42;4.57;;;4.13;;
8893;SDS011;4483;48.622;9.230;2022-07-29T04:16:09;6.03;;;3.90;;
8893;SDS011;4483;48.622;9.230;2022-07-29T04:18:35;4.53;;;4.10;;
8893;SDS011;4483;48.622;9.230;2022-07-29T04:21:02;6.33;;;3.80;;
8893;SDS011;4483;48.622;9.230;2022-07-29T04:23:29;3.43;;;3.13;;
8893;SDS011;4483;48.622;9.230;2022-07-29T04:25:57;4.32;;;3.92;;
8893;SDS011;4483;48.622;9.230;2022-07-29T04:28:25;4.33;;;4.03;;
8893;SDS011;4483;48.622;9.230;2022-07-29T04:30:53;4.43;;;4.13;;
8893;SDS011;4483;48.622;9.230;2022-07-29T04:33:19;3.97;;;3.78;;
8893;SDS011;4483;48.622;9.230;2022-07-29T04:35:46;3.97;;;3.37;;
8893;SDS011;4483;48.622;9.230;2022-07-29T04:38:13;3.97;;;3.70;;
8893;SDS011;4483;48.622;9.230;2022-07-29T04:40:39;4.18;;;3.88;;
8893;SDS011;4483;48.622;9.230;2022-07-29T04:43:06;4.70;;;4.22;;
8893;SDS011;4483;48.622;9.230;2022-07-29T04:45:32;4.70;;;4.30;;
8893;SDS011;4483;48.622;9.230;2022-07-29T04:48:01;4.67;;;3.60;;
8893;SDS011;4483;48.622;9.230;2022-07-29T04:50:28;7.03;;;3.73;;
8893;SDS011;4483;48.622;9.230;2022-07-29T04:52:55;3.90;;;3.60;;
8893;SDS011;4483;48.622;9.230;2022-07-29T04:55:21;3.55;;;3.25;;
8893;SDS011;4483;48.622;9.230;2022-07-29T04:57:48;3.70;;;3.20;;
8893;SDS011;4483;48.622;9.230;2022-07-29T05:00:15;4.03;;;3.78;;
8893;SDS011;4483;48.622;9.230;2022-07-29T05:02:42;5.03;;;4.05;;
8893;SDS011;4483;48.622;9.230;2022-07-29T05:05:10;4.13;;;3.70;;
8893;SDS011;4483;48.622;9.230;2022-07-29T05:07:36;4.57;;;3.55;;
8893;SDS011;4483;48.622;9.230;2022-07-29T05:10:03;3.90;;;3.53;;
8893;SDS011;4483;48.622;9.230;2022-07-29T05:12:31;5.15;;;4.10;;
8893;SDS011;4483;48.622;9.230;2022-07-29T05:14:57;6.40;;;3.80;;
8893;SDS011;4483;48.622;9.230;2022-07-29T05:17:24;3.47;;;3.28;;
8893;SDS011;4483;48.622;9.230;2022-07-29T05:19:50;3.75;;;3.45;;
8893;SDS011;4483;48.622;9.230;2022-07-29T05:22:19;3.28;;;2.97;;
8893;SDS011;4483;48.622;9.230;2022-07-29T05:24:45;4.03;;;3.58;;
8893;SDS011;4483;48.622;9.230;2022-07-29T05:27:12;4.47;;;3.40;;
8893;SDS011;4483;48.622;9.230;2022-07-29T05:29:39;7.82;;;4.07;;
8893;SDS011;4483;48.622;9.230;2022-07-29T05:32:06;3.60;;;3.40;;
8893;SDS011;4483;48.622;9.230;2022-07-29T05:34:32;3.65;;;3.42;;
8893;SDS011;4483;48.622;9.230;2022-07-29T05:36:59;3.60;;;3.30;;
8893;SDS011;4483;48.622;9.230;2022-07-29T05:39:27;3.20;;;3.00;;
8893;SDS011;4483;48.622;9.230;2022-07-29T05:41:54;3.50;;;3.30;;
8893;SDS011;4483;48.622;9.230;2022-07-29T05:44:20;5.15;;;3.50;;
8893;SDS011;4483;48.622;9.230;2022-07-29T05:46:47;3.35;;;3.00;;
8893;SDS011;4483;48.622;9.230;2022-07-29T05:49:13;3.50;;;3.22;;
8893;SDS011;4483;48.622;9.230;2022-07-29T05:51:40;3.00;;;2.70;;
8893;SDS011;4483;48.622;9.230;2022-07-29T05:54:07;6.63;;;2.70;;
8893;SDS011;4483;48.622;9.230;2022-07-29T05:56:36;2.78;;;2.58;;
8893;SDS011;4483;48.622;9.230;2022-07-29T05:59:03;3.85;;;3.03;;
8893;SDS011;4483;48.622;9.230;2022-07-29T06:01:29;2.83;;;2.63;;
8893;SDS011;4483;48.622;9.230;2022-07-29T06:03:56;2.85;;;2.63;;
8893;SDS011;4483;48.622;9.230;2022-07-29T06:06:23;2.90;;;2.70;;
8893;SDS011;4483;48.622;9.230;2022-07-29T06:08:50;3.15;;;2.80;;
8893;SDS011;4483;48.622;9.230;2022-07-29T06:11:16;2.97;;;2.78;;
8893;SDS011;4483;48.622;9.230;2022-07-29T06:13:44;2.65;;;2.45;;
8893;SDS011;4483;48.622;9.230;2022-07-29T06:16:11;2.60;;;2.40;;
8893;SDS011;4483;48.622;9.230;2022-07-29T06:18:38;3.65;;;3.35;;
8893;SDS011;4483;48.622;9.230;2022-07-29T06:21:07;2.92;;;2.72;;
8893;SDS011;4483;48.622;9.230;2022-07-29T06:23:34;2.47;;;2.38;;
8893;SDS011;4483;48.622;9.230;2022-07-29T06:26:01;2.35;;;2.25;;
8893;SDS011;4483;48.622;9.230;2022-07-29T06:28:28;3.53;;;2.60;;
8893;SDS011;4483;48.622;9.230;2022-07-29T06:30:56;4.25;;;2.40;;
8893;SDS011;4483;48.622;9.230;2022-07-29T06:33:22;2.28;;;2.17;;
8893;SDS011;4483;48.622;9.230;2022-07-29T06:35:49;3.85;;;2.30;;
8893;SDS011;4483;48.622;9.230;2022-07-29T06:38:16;2.50;;;2.30;;
8893;SDS011;4483;48.622;9.230;2022-07-29T06:40:43;3.00;;;2.33;;
8893;SDS011;4483;48.622;9.230;2022-07-29T06:43:29;5.68;;;2.20;;
8893;SDS011;4483;48.622;9.230;2022-07-29T06:46:00;2.17;;;2.08;;
8893;SDS011;4483;48.622;9.230;2022-07-29T06:48:28;1.95;;;1.85;;
8893;SDS011;4483;48.622;9.230;2022-07-29T06:50:55;2.10;;;2.00;;
8893;SDS011;4483;48.622;9.230;2022-07-29T06:53:22;2.10;;;2.00;;
8893;SDS011;4483;48.622;9.230;2022-07-29T06:55:48;2.03;;;1.90;;
8893;SDS011;4483;48.622;9.230;2022-07-29T06:58:15;2.05;;;1.95;;
8893;SDS011;4483;48.622;9.230;2022-07-29T07:00:43;3.72;;;2.10;;
8893;SDS011;4483;48.622;9.230;2022-07-29T07:03:11;5.57;;;2.08;;
8893;SDS011;4483;48.622;9.230;2022-07-29T07:05:38;2.33;;;2.13;;
8893;SDS011;4483;48.622;9.230;2022-07-29T07:08:04;3.00;;;2.17;;
8893;SDS011;4483;48.622;9.230;2022-07-29T07:10:32;2.10;;;2.00;;
8893;SDS011;4483;48.622;9.230;2022-07-29T07:12:59;2.10;;;2.00;;
8893;SDS011;4483;48.622;9.230;2022-07-29T07:15:26;2.08;;;1.98;;
8893;SDS011;4483;48.622;9.230;2022-07-29T07:17:53;2.65;;;2.30;;
8893;SDS011;4483;48.622;9.230;2022-07-29T07:20:21;3.38;;;2.40;;
8893;SDS011;4483;48.622;9.230;2022-07-29T07:22:47;2.10;;;2.00;;
8893;SDS011;4483;48.622;9.230;2022-07-29T07:25:14;1.90;;;1.80;;
8893;SDS011;4483;48.622;9.230;2022-07-29T07:27:42;2.05;;;1.95;;
8893;SDS011;4483;48.622;9.230;2022-07-29T07:30:09;3.95;;;2.25;;
8893;SDS011;4483;48.622;9.230;2022-07-29T07:32:36;2.10;;;1.90;;
8893;SDS011;4483;48.622;9.230;2022-07-29T07:35:03;2.15;;;2.05;;
8893;SDS011;4483;48.622;9.230;2022-07-29T07:37:33;1.92;;;1.73;;
8893;SDS011;4483;48.622;9.230;2022-07-29T07:40:00;2.30;;;1.95;;
8893;SDS011;4483;48.622;9.230;2022-07-29T07:42:27;2.53;;;2.30;;
8893;SDS011;4483;48.622;9.230;2022-07-29T07:44:53;4.70;;;2.25;;
8893;SDS011;4483;48.622;9.230;2022-07-29T07:47:20;2.15;;;1.60;;
8893;SDS011;4483;48.622;9.230;2022-07-29T07:49:48;3.33;;;1.90;;
8893;SDS011;4483;48.622;9.230;2022-07-29T07:52:15;2.20;;;2.00;;
8893;SDS011;4483;48.622;9.230;2022-07-29T07:54:44;2.08;;;1.88;;
8893;SDS011;4483;48.622;9.230;2022-07-29T07:57:11;4.35;;;1.85;;
8893;SDS011;4483;48.622;9.230;2022-07-29T07:59:38;2.05;;;1.73;;
8893;SDS011;4483;48.622;9.230;2022-07-29T08:02:06;2.67;;;2.00;;
8893;SDS011;4483;48.622;9.230;2022-07-29T08:04:33;1.98;;;1.88;;
8893;SDS011;4483;48.622;9.230;2022-07-29T08:07:00;3.90;;;2.20;;
8893;SDS011;4483;48.622;9.230;2022-07-29T08:09:27;2.63;;;2.33;;
8893;SDS011;4483;48.622;9.230;2022-07-29T08:11:57;2.53;;;2.33;;
8893;SDS011;4483;48.622;9.230;2022-07-29T08:14:24;3.10;;;2.47;;
8893;SDS011;4483;48.622;9.230;2022-07-29T08:16:51;2.80;;;2.60;;
8893;SDS011;4483;48.622;9.230;2022-07-29T08:19:17;2.97;;;2.60;;
8893;SDS011;4483;48.622;9.230;2022-07-29T08:21:44;4.25;;;2.42;;
8893;SDS011;4483;48.622;9.230;2022-07-29T08:24:11;4.57;;;2.25;;
8893;SDS011;4483;48.622;9.230;2022-07-29T08:26:56;3.17;;;2.63;;
8893;SDS011;4483;48.622;9.230;2022-07-29T08:29:23;2.60;;;2.40;;
8893;SDS011;4483;48.622;9.230;2022-07-29T08:31:49;2.40;;;2.30;;
8893;SDS011;4483;48.622;9.230;2022-07-29T08:34:16;2.60;;;2.40;;
8893;SDS011;4483;48.622;9.230;2022-07-29T08:36:43;2.90;;;2.70;;
8893;SDS011;4483;48.622;9.230;2022-07-29T08:39:09;4.78;;;2.47;;
8893;SDS011;4483;48.622;9.230;2022-07-29T08:41:36;2.60;;;2.50;;
8893;SDS011;4483;48.622;9.230;2022-07-29T08:44:04;5.03;;;2.67;;
8893;SDS011;4483;48.622;9.230;2022-07-29T08:46:31;3.05;;;2.45;;
8893;SDS011;4483;48.622;9.230;2022-07-29T08:48:57;2.63;;;2.42;;
8893;SDS011;4483;48.622;9.230;2022-07-29T08:51:24;2.58;;;2.45;;
8893;SDS011;4483;48.622;9.230;2022-07-29T08:53:52;2.38;;;2.20;;
8893;SDS011;4483;48.622;9.230;2022-07-29T08:56:20;2.72;;;2.50;;
8893;SDS011;4483;48.622;9.230;2022-07-29T08:58:48;2.80;;;2.60;;
8893;SDS011;4483;48.622;9.230;2022-07-29T09:01:17;2.67;;;2.50;;
8893;SDS011;4483;48.622;9.230;2022-07-29T09:03:48;3.90;;;2.80;;
8893;SDS011;4483;48.622;9.230;2022-07-29T09:06:15;3.58;;;2.83;;
8893;SDS011;4483;48.622;9.230;2022-07-29T09:08:44;3.00;;;2.70;;
8893;SDS011;4483;48.622;9.230;2022-07-29T09:11:11;3.95;;;2.85;;
8893;SDS011;4483;48.622;9.230;2022-07-29T09:13:37;2.38;;;2.28;;
8893;SDS011;4483;48.622;9.230;2022-07-29T09:16:04;3.60;;;2.45;;
8893;SDS011;4483;48.622;9.230;2022-07-29T09:18:36;3.28;;;2.30;;
8893;SDS011;4483;48.622;9.230;2022-07-29T09:21:04;2.80;;;2.50;;
8893;SDS011;4483;48.622;9.230;2022-07-29T09:24:02;2.60;;;2.50;;
8893;SDS011;4483;48.622;9.230;2022-07-29T09:26:32;3.08;;;2.55;;
8893;SDS011;4483;48.622;9.230;2022-07-29T09:28:59;3.33;;;2.67;;
8893;SDS011;4483;48.622;9.230;2022-07-29T09:31:34;3.03;;;2.83;;
8893;SDS011;4483;48.622;9.230;2022-07-29T09:34:05;2.72;;;2.53;;
8893;SDS011;4483;48.622;9.230;2022-07-29T09:36:38;8.10;;;2.60;;
8893;SDS011;4483;48.622;9.230;2022-07-29T09:39:06;2.70;;;2.50;;
8893;SDS011;4483;48.622;9.230;2022-07-29T09:41:43;2.90;;;2.70;;
8893;SDS011;4483;48.622;9.230;2022-07-29T09:44:11;2.85;;;2.53;;
8893;SDS011;4483;48.622;9.230;2022-07-29T09:46:37;4.07;;;3.25;;
8893;SDS011;4483;48.622;9.230;2022-07-29T09:49:08;5.32;;;4.55;;
8893;SDS011;4483;48.622;9.230;2022-07-29T09:51:36;2.97;;;2.78;;
8893;SDS011;4483;48.622;9.230;2022-07-29T09:54:04;3.20;;;3.00;;
8893;SDS011;4483;48.622;9.230;2022-07-29T09:56:48;6.05;;;2.55;;
8893;SDS011;4483;48.622;9.230;2022-07-29T09:59:16;3.17;;;2.88;;
8893;SDS011;4483;48.622;9.230;2022-07-29T10:01:42;10.25;;;2.75;;
8893;SDS011;4483;48.622;9.230;2022-07-29T10:04:11;2.97;;;2.78;;
8893;SDS011;4483;48.622;9.230;2022-07-29T10:06:45;3.08;;;2.88;;
8893;SDS011;4483;48.622;9.230;2022-07-29T10:09:22;5.47;;;2.70;;
8893;SDS011;4483;48.622;9.230;2022-07-29T10:12:02;3.17;;;2.97;;
8893;SDS011;4483;48.622;9.230;2022-07-29T10:14:33;4.05;;;3.35;;
8893;SDS011;4483;48.622;9.230;2022-07-29T10:16:59;4.55;;;2.72;;
8893;SDS011;4483;48.622;9.230;2022-07-29T10:19:29;2.90;;;2.70;;
8893;SDS011;4483;48.622;9.230;2022-07-29T10:21:57;3.17;;;2.88;;
8893;SDS011;4483;48.622;9.230;2022-07-29T10:24:24;3.13;;;2.80;;
8893;SDS011;4483;48.622;9.230;2022-07-29T10:26:52;3.35;;;3.00;;
8893;SDS011;4483;48.622;9.230;2022-07-29T10:29:21;3.38;;;3.05;;
8893;SDS011;4483;48.622;9.230;2022-07-29T10:31:49;4.85;;;3.35;;
8893;SDS011;4483;48.622;9.230;2022-07-29T10:34:31;3.63;;;3.25;;
8893;SDS011;4483;48.622;9.230;2022-07-29T10:37:12;7.28;;;3.33;;
8893;SDS011;4483;48.622;9.230;2022-07-29T10:39:48;3.08;;;2.88;;
8893;SDS011;4483;48.622;9.230;2022-07-29T10:42:25;3.40;;;3.10;;
8893;SDS011;4483;48.622;9.230;2022-07-29T10:44:55;3.92;;;3.05;;
8893;SDS011;4483;48.622;9.230;2022-07-29T10:47:23;5.38;;;3.08;;
8893;SDS011;4483;48.622;9.230;2022-07-29T10:49:56;3.50;;;3.20;;
8893;SDS011;4483;48.622;9.230;2022-07-29T10:52:24;4.43;;;3.15;;
8893;SDS011;4483;48.622;9.230;2022-07-29T10:54:53;3.08;;;2.85;;
8893;SDS011;4483;48.622;9.230;2022-07-29T10:57:23;3.10;;;2.80;;
8893;SDS011;4483;48.622;9.230;2022-07-29T11:02:52;4.05;;;2.92;;
8893;SDS011;4483;48.622;9.230;2022-07-29T11:05:22;4.00;;;3.00;;
8893;SDS011;4483;48.622;9.230;2022-07-29T11:10:48;3.38;;;2.90;;
8893;SDS011;4483;48.622;9.230;2022-07-29T11:16:19;3.47;;;2.92;;
8893;SDS011;4483;48.622;9.230;2022-07-29T11:21:50;3.00;;;2.80;;
8893;SDS011;4483;48.622;9.230;2022-07-29T11:24:18;4.10;;;2.70;;
8893;SDS011;4483;48.622;9.230;2022-07-29T11:29:39;3.25;;;2.53;;
8893;SDS011;4483;48.622;9.230;2022-07-29T11:32:11;4.50;;;2.85;;
8893;SDS011;4483;48.622;9.230;2022-07-29T11:34:39;5.40;;;3.20;;
8893;SDS011;4483;48.622;9.230;2022-07-29T11:40:09;6.03;;;3.08;;
8893;SDS011;4483;48.622;9.230;2022-07-29T11:42:39;6.65;;;3.55;;
8893;SDS011;4483;48.622;9.230;2022-07-29T11:45:07;4.85;;;3.13;;
8893;SDS011;4483;48.622;9.230;2022-07-29T11:47:36;4.68;;;3.20;;
8893;SDS011;4483;48.622;9.230;2022-07-29T11:50:06;2.88;;;2.67;;
8893;SDS011;4483;48.622;9.230;2022-07-29T11:52:35;8.57;;;2.78;;
8893;SDS011;4483;48.622;9.230;2022-07-29T11:55:08;3.97;;;2.38;;
8893;SDS011;4483;48.622;9.230;2022-07-29T11:57:37;5.50;;;3.17;;
8893;SDS011;4483;48.622;9.230;2022-07-29T12:00:11;2.95;;;2.42;;
8893;SDS011;4483;48.622;9.230;2022-07-29T12:02:40;3.65;;;2.28;;
8893;SDS011;4483;48.622;9.230;2022-07-29T12:05:07;5.70;;;2.35;;
8893;SDS011;4483;48.622;9.230;2022-07-29T12:07:37;2.95;;;2.60;;
8893;SDS011;4483;48.622;9.230;2022-07-29T12:10:06;3.42;;;2.30;;
8893;SDS011;4483;48.622;9.230;2022-07-29T12:12:35;6.68;;;2.83;;
8893;SDS011;4483;48.622;9.230;2022-07-29T12:15:14;2.67;;;2.47;;
8893;SDS011;4483;48.622;9.230;2022-07-29T12:17:44;3.88;;;2.55;;
8893;SDS011;4483;48.622;9.230;2022-07-29T12:20:12;5.15;;;2.28;;
8893;SDS011;4483;48.622;9.230;2022-07-29T12:22:43;2.97;;;2.30;;
8893;SDS011;4483;48.622;9.230;2022-07-29T12:25:10;2.80;;;2.17;;
8893;SDS011;4483;48.622;9.230;2022-07-29T12:27:40;3.42;;;2.35;;
8893;SDS011;4483;48.622;9.230;2022-07-29T12:30:09;2.45;;;2.25;;
8893;SDS011;4483;48.622;9.230;2022-07-29T12:32:38;3.63;;;2.30;;
8893;SDS011;4483;48.622;9.230;2022-07-29T12:35:07;2.85;;;2.60;;
8893;SDS011;4483;48.622;9.230;2022-07-29T12:37:36;7.80;;;3.28;;
8893;SDS011;4483;48.622;9.230;2022-07-29T12:40:06;3.33;;;2.90;;
8893;SDS011;4483;48.622;9.230;2022-07-29T12:42:34;3.17;;;2.67;;
8893;SDS011;4483;48.622;9.230;2022-07-29T12:45:02;4.18;;;2.90;;
8893;SDS011;4483;48.622;9.230;2022-07-29T12:47:30;3.30;;;3.00;;
8893;SDS011;4483;48.622;9.230;2022-07-29T12:50:09;4.88;;;2.97;;
8893;SDS011;4483;48.622;9.230;2022-07-29T12:52:39;9.02;;;3.13;;
8893;SDS011;4483;48.622;9.230;2022-07-29T12:55:07;3.60;;;3.30;;
8893;SDS011;4483;48.622;9.230;2022-07-29T12:57:43;5.22;;;3.53;;
8893;SDS011;4483;48.622;9.230;2022-07-29T13:00:12;4.72;;;3.17;;
8893;SDS011;4483;48.622;9.230;2022-07-29T13:02:40;3.80;;;3.17;;
8893;SDS011;4483;48.622;9.230;2022-07-29T13:05:08;5.10;;;3.05;;
8893;SDS011;4483;48.622;9.230;2022-07-29T13:07:36;3.67;;;3.17;;
8893;SDS011;4483;48.622;9.230;2022-07-29T13:10:12;4.85;;;3.25;;
8893;SDS011;4483;48.622;9.230;2022-07-29T13:15:28;3.47;;;3.17;;
8893;SDS011;4483;48.622;9.230;2022-07-29T13:17:55;5.28;;;3.22;;
8893;SDS011;4483;48.622;9.230;2022-07-29T13:20:23;3.53;;;3.22;;
8893;SDS011;4483;48.622;9.230;2022-07-29T13:22:52;4.10;;;3.45;;
8893;SDS011;4483;48.622;9.230;2022-07-29T13:25:24;6.60;;;3.20;;
8893;SDS011;4483;48.622;9.230;2022-07-29T13:27:52;3.80;;;3.30;;
8893;SDS011;4483;48.622;9.230;2022-07-29T13:30:20;3.60;;;3.30;;
8893;SDS011;4483;48.622;9.230;2022-07-29T13:32:47;3.10;;;2.90;;
8893;SDS011;4483;48.622;9.230;2022-07-29T13:35:14;3.85;;;3.35;;
8893;SDS011;4483;48.622;9.230;2022-07-29T13:37:41;5.00;;;3.13;;
8893;SDS011;4483;48.622;9.230;2022-07-29T13:40:08;4.63;;;3.35;;
8893;SDS011;4483;48.622;9.230;2022-07-29T13:42:37;6.63;;;3.60;;
8893;SDS011;4483;48.622;9.230;2022-07-29T13:45:05;6.18;;;3.85;;
8893;SDS011;4483;48.622;9.230;2022-07-29T13:47:32;4.47;;;3.90;;
8893;SDS011;4483;48.622;9.230;2022-07-29T13:49:59;4.65;;;3.20;;
8893;SDS011;4483;48.622;9.230;2022-07-29T13:52:26;6.22;;;3.90;;
8893;SDS011;4483;48.622;9.230;2022-07-29T13:54:53;4.10;;;3.60;;
8893;SDS011;4483;48.622;9.230;2022-07-29T13:57:19;4.18;;;3.58;;
8893;SDS011;4483;48.622;9.230;2022-07-29T13:59:47;3.85;;;3.38;;
8893;SDS011;4483;48.622;9.230;2022-07-29T14:02:16;4.03;;;3.55;;
8893;SDS011;4483;48.622;9.230;2022-07-29T14:04:42;3.88;;;3.35;;
8893;SDS011;4483;48.622;9.230;2022-07-29T14:07:09;3.67;;;3.40;;
8893;SDS011;4483;48.622;9.230;2022-07-29T14:09:36;4.25;;;3.83;;
8893;SDS011;4483;48.622;9.230;2022-07-29T14:12:02;4.25;;;3.75;;
8893;SDS011;4483;48.622;9.230;2022-07-29T14:14:29;3.67;;;3.42;;
8893;SDS011;4483;48.622;9.230;2022-07-29T14:16:58;3.80;;;3.50;;
8893;SDS011;4483;48.622;9.230;2022-07-29T14:19:25;4.13;;;3.72;;
8893;SDS011;4483;48.622;9.230;2022-07-29T14:21:52;6.63;;;3.88;;
8893;SDS011;4483;48.622;9.230;2022-07-29T14:24:18;3.40;;;3.10;;
8893;SDS011;4483;48.622;9.230;2022-07-29T14:26:45;3.63;;;3.30;;
8893;SDS011;4483;48.622;9.230;2022-07-29T14:29:11;4.93;;;3.20;;
8893;SDS011;4483;48.622;9.230;2022-07-29T14:31:38;3.20;;;3.00;;
8893;SDS011;4483;48.622;9.230;2022-07-29T14:34:06;3.30;;;3.00;;
8893;SDS011;4483;48.622;9.230;2022-07-29T14:36:33;4.55;;;3.33;;
8893;SDS011;4483;48.622;9.230;2022-07-29T14:38:59;3.40;;;3.10;;
8893;SDS011;4483;48.622;9.230;2022-07-29T14:41:26;3.15;;;2.80;;
8893;SDS011;4483;48.622;9.230;2022-07-29T14:43:53;3.47;;;3.17;;
8893;SDS011;4483;48.622;9.230;2022-07-29T14:46:20;6.07;;;3.42;;
8893;SDS011;4483;48.622;9.230;2022-07-29T14:48:46;3.45;;;3.22;;
8893;SDS011;4483;48.622;9.230;2022-07-29T14:51:14;4.03;;;3.40;;
8893;SDS011;4483;48.622;9.230;2022-07-29T14:53:41;3.67;;;3.10;;
8893;SDS011;4483;48.622;9.230;2022-07-29T14:56:08;4.15;;;3.50;;
8893;SDS011;4483;48.622;9.230;2022-07-29T14:58:34;4.75;;;3.40;;
8893;SDS011;4483;48.622;9.230;2022-07-29T15:01:01;4.53;;;3.50;;
8893;SDS011;4483;48.622;9.230;2022-07-29T15:03:28;4.95;;;3.20;;
8893;SDS011;4483;48.622;9.230;2022-07-29T15:05:55;6.13;;;3.65;;
8893;SDS011;4483;48.622;9.230;2022-07-29T15:08:23;4.20;;;3.45;;
8893;SDS011;4483;48.622;9.230;2022-07-29T15:10:52;4.85;;;3.50;;
8893;SDS011;4483;48.622;9.230;2022-07-29T15:13:19;4.78;;;3.40;;
8893;SDS011;4483;48.622;9.230;2022-07-29T15:15:46;5.18;;;3.33;;
8893;SDS011;4483;48.622;9.230;2022-07-29T15:18:12;6.38;;;3.40;;
8893;SDS011;4483;48.622;9.230;2022-07-29T15:20:39;3.08;;;2.70;;
8893;SDS011;4483;48.622;9.230;2022-07-29T15:23:06;4.03;;;3.63;;
8893;SDS011;4483;48.622;9.230;2022-07-29T15:25:35;3.33;;;3.08;;
8893;SDS011;4483;48.622;9.230;2022-07-29T15:28:02;4.28;;;2.85;;
8893;SDS011;4483;48.622;9.230;2022-07-29T15:30:32;4.47;;;3.30;;
8893;SDS011;4483;48.622;9.230;2022-07-29T15:33:01;3.08;;;2.88;;
8893;SDS011;4483;48.622;9.230;2022-07-29T15:35:28;4.63;;;2.97;;
8893;SDS011;4483;48.622;9.230;2022-07-29T15:37:55;2.95;;;2.65;;
8893;SDS011;4483;48.622;9.230;2022-07-29T15:40:21;3.10;;;2.80;;
8893;SDS011;4483;48.622;9.230;2022-07-29T15:42:50;3.55;;;3.13;;
8893;SDS011;4483;48.622;9.230;2022-07-29T15:45:17;3.38;;;3.08;;
8893;SDS011;4483;48.622;9.230;2022-07-29T15:47:43;3.53;;;3.13;;